Time;durP1;ratioP1;P1;durP2;ratioP2;P2;SDS_P1;SDS_P2;PMS_P1;PMS_P2;Temp;Humidity;BMP_temperature;BMP_pressure;BME280_temperature;BME280_humidity;BME280_pressure;Samples;Min_cycle;Max_cycle;Signal;HPM_P1;HPM_P2
2022/05/07 00:01:57;;;;;;;10.98;8.40;;;14.70;99.90;;;;;;5009597;28;20032;-59
2022/05/07 00:04:22;;;;;;;11.70;7.78;;;14.80;99.90;;;;;;5006757;28;20085;-59
2022/05/07 00:06:49;;;;;;;12.43;8.35;;;14.70;99.90;;;;;;4989266;28;20021;-57
2022/05/07 00:09:14;;;;;;;11.45;8.60;;;14.80;99.90;;;;;;5006380;28;20085;-58
2022/05/07 00:11:40;;;;;;;12.38;9.32;;;14.80;99.90;;;;;;5009003;28;20017;-59
2022/05/07 00:14:07;;;;;;;12.38;9.05;;;14.90;99.90;;;;;;5004798;28;20502;-58
2022/05/07 00:19:18;;;;;;;17.58;9.75;;;14.90;99.90;;;;;;5009334;28;20017;-58
2022/05/07 00:21:43;;;;;;;12.63;9.65;;;14.80;99.90;;;;;;5004442;28;20029;-58
2022/05/07 00:24:09;;;;;;;14.18;10.02;;;14.80;99.90;;;;;;5004901;28;20022;-60
2022/05/07 00:26:35;;;;;;;15.68;9.30;;;14.80;99.90;;;;;;5004745;28;20025;-57
2022/05/07 00:29:00;;;;;;;16.10;9.77;;;14.70;99.90;;;;;;5004923;28;20033;-60
2022/05/07 00:31:26;;;;;;;15.45;9.30;;;14.70;99.90;;;;;;5004377;28;20121;-59
2022/05/07 00:33:51;;;;;;;12.80;9.52;;;14.70;99.90;;;;;;5006194;28;20498;-59
2022/05/07 00:36:17;;;;;;;13.35;9.85;;;14.70;99.90;;;;;;4993885;28;20144;-59
2022/05/07 00:38:44;;;;;;;14.45;9.10;;;14.60;99.90;;;;;;5008211;28;20046;-60
2022/05/07 00:41:09;;;;;;;14.40;9.50;;;14.60;99.90;;;;;;5004821;28;20030;-58
2022/05/07 00:43:36;;;;;;;14.05;9.60;;;14.60;99.90;;;;;;5005937;28;20034;-58
2022/05/07 00:46:02;;;;;;;16.23;10.43;;;14.50;99.90;;;;;;5004945;28;20019;-59
2022/05/07 00:48:29;;;;;;;19.75;12.15;;;14.50;99.90;;;;;;5009795;28;20034;-61
2022/05/07 00:53:39;;;;;;;16.70;10.50;;;14.50;99.90;;;;;;5020784;28;20044;-59
2022/05/07 00:56:05;;;;;;;17.23;11.38;;;14.50;99.90;;;;;;5034493;28;20025;-59
2022/05/07 00:58:31;;;;;;;16.90;10.30;;;14.50;99.90;;;;;;5034417;28;20084;-60
2022/05/07 01:00:57;;;;;;;17.98;11.18;;;14.50;99.90;;;;;;5034447;28;20017;-60
2022/05/07 01:03:23;;;;;;;16.38;10.88;;;14.50;99.90;;;;;;5034642;28;20036;-59
2022/05/07 01:05:49;;;;;;;16.17;11.15;;;14.50;99.90;;;;;;5016364;28;20053;-57
2022/05/07 01:08:15;;;;;;;18.75;11.10;;;14.50;99.90;;;;;;5023819;28;20034;-58
2022/05/07 01:10:40;;;;;;;15.95;11.25;;;14.40;99.90;;;;;;5034869;28;20131;-60
2022/05/07 01:13:07;;;;;;;15.32;11.05;;;14.40;99.90;;;;;;5034892;28;20149;-59
2022/05/07 01:15:45;;;;;;;17.50;11.65;;;14.40;99.90;;;;;;5034543;28;20056;-59
2022/05/07 01:18:12;;;;;;;18.95;10.98;;;14.40;99.90;;;;;;5034967;28;20098;-59
2022/05/07 01:20:38;;;;;;;20.08;11.23;;;14.50;99.90;;;;;;5034570;28;20025;-58
2022/05/07 01:23:05;;;;;;;17.20;10.88;;;14.50;99.90;;;;;;5034346;28;20029;-59
2022/05/07 01:25:32;;;;;;;17.52;10.48;;;14.40;99.90;;;;;;5016141;28;20025;-60
2022/05/07 01:27:58;;;;;;;18.40;11.48;;;14.40;99.90;;;;;;5034072;28;20040;-59
2022/05/07 01:30:24;;;;;;;14.70;10.77;;;14.40;99.90;;;;;;5033912;28;20033;-58
2022/05/07 01:32:50;;;;;;;14.75;10.23;;;14.50;99.90;;;;;;5033599;28;20025;-58
2022/05/07 01:35:16;;;;;;;15.15;10.65;;;14.50;99.90;;;;;;5016937;28;20026;-59
2022/05/07 01:37:42;;;;;;;18.67;11.40;;;14.50;99.90;;;;;;5034312;28;20438;-59
2022/05/07 01:40:08;;;;;;;18.42;11.32;;;14.50;99.90;;;;;;5034831;28;20147;-58
2022/05/07 01:42:34;;;;;;;17.02;11.18;;;14.60;99.90;;;;;;5034434;28;20030;-59
2022/05/07 01:45:01;;;;;;;19.50;11.10;;;14.50;99.90;;;;;;5033684;28;20036;-59
2022/05/07 01:50:10;;;;;;;14.15;10.25;;;14.50;99.90;;;;;;5034254;28;20025;-58
2022/05/07 01:52:36;;;;;;;18.45;11.48;;;14.40;99.90;;;;;;5033593;28;20033;-59
2022/05/07 01:55:02;;;;;;;15.20;11.57;;;14.40;99.90;;;;;;5033409;28;20048;-57
2022/05/07 01:57:28;;;;;;;16.02;11.07;;;14.30;99.90;;;;;;5033227;28;20481;-60
2022/05/07 01:59:53;;;;;;;15.45;11.32;;;14.30;99.90;;;;;;5033210;28;20022;-60
2022/05/07 02:02:19;;;;;;;15.05;11.05;;;14.20;99.90;;;;;;5033331;28;20021;-60
2022/05/07 02:04:44;;;;;;;14.88;10.63;;;14.20;99.90;;;;;;5015256;28;20017;-59
2022/05/07 02:07:10;;;;;;;16.98;12.10;;;14.10;99.90;;;;;;5033207;28;20070;-58
2022/05/07 02:09:36;;;;;;;16.77;11.48;;;14.10;99.90;;;;;;5033139;28;20036;-58
2022/05/07 02:12:02;;;;;;;19.02;12.75;;;14.10;99.90;;;;;;5033919;28;20029;-58
2022/05/07 02:14:29;;;;;;;20.00;12.45;;;14.00;99.90;;;;;;5033079;28;20104;-58
2022/05/07 02:16:55;;;;;;;14.57;11.52;;;13.90;99.90;;;;;;5033266;28;20025;-59
2022/05/07 02:19:20;;;;;;;20.10;12.68;;;13.90;99.90;;;;;;5035136;28;20021;-59
2022/05/07 02:21:46;;;;;;;19.17;12.20;;;13.90;99.90;;;;;;5037191;28;20536;-58
2022/05/07 02:24:11;;;;;;;21.73;13.25;;;13.90;99.90;;;;;;5037743;28;20033;-58
2022/05/07 02:26:37;;;;;;;19.45;13.43;;;13.90;99.90;;;;;;5037054;28;20057;-59
2022/05/07 02:29:03;;;;;;;18.98;13.23;;;13.90;99.90;;;;;;5037198;28;20140;-57
2022/05/07 02:31:28;;;;;;;22.27;14.13;;;13.80;99.90;;;;;;5037054;28;20021;-59
2022/05/07 02:33:54;;;;;;;20.65;14.15;;;13.80;99.90;;;;;;5036771;28;20095;-59
2022/05/07 02:36:19;;;;;;;26.35;15.10;;;13.80;99.90;;;;;;5037460;28;20368;-58
2022/05/07 02:38:45;;;;;;;24.25;16.38;;;13.80;99.90;;;;;;5036777;28;20032;-58
2022/05/07 02:43:54;;;;;;;23.08;15.38;;;13.70;99.90;;;;;;5036828;28;20107;-59
2022/05/07 02:46:20;;;;;;;22.42;15.95;;;13.70;99.90;;;;;;5036778;28;20026;-58
2022/05/07 02:48:46;;;;;;;21.90;15.57;;;13.70;99.90;;;;;;5019333;28;20033;-59
2022/05/07 02:51:12;;;;;;;21.25;15.00;;;13.60;99.90;;;;;;5037061;28;20029;-58
2022/05/07 02:53:38;;;;;;;23.38;15.73;;;13.60;99.90;;;;;;5036719;28;20106;-58
2022/05/07 02:56:04;;;;;;;25.50;15.43;;;13.60;99.90;;;;;;5036868;28;20583;-59
2022/05/07 02:58:30;;;;;;;26.13;16.60;;;13.60;99.90;;;;;;5036652;28;20112;-59
2022/05/07 03:00:57;;;;;;;24.02;16.70;;;13.60;99.90;;;;;;5037083;28;20029;-58
2022/05/07 03:03:23;;;;;;;25.27;16.45;;;13.50;99.90;;;;;;5036600;28;20095;-57
2022/05/07 03:05:49;;;;;;;25.33;16.83;;;13.50;99.90;;;;;;5036717;28;20025;-58
2022/05/07 03:08:14;;;;;;;24.20;15.40;;;13.60;99.90;;;;;;5036778;28;20031;-59
2022/05/07 03:10:40;;;;;;;24.40;16.65;;;13.60;99.90;;;;;;5037628;28;20037;-58
2022/05/07 03:13:06;;;;;;;28.77;16.63;;;13.70;99.90;;;;;;5037214;28;20104;-59
2022/05/07 03:15:32;;;;;;;23.05;16.88;;;13.70;99.90;;;;;;5036582;28;20101;-60
2022/05/07 03:17:58;;;;;;;24.50;16.80;;;13.70;99.90;;;;;;5036478;28;20025;-59
2022/05/07 03:20:24;;;;;;;23.13;16.83;;;13.60;99.90;;;;;;5018139;28;20394;-56
2022/05/07 03:22:50;;;;;;;34.05;17.10;;;13.70;99.90;;;;;;5035988;28;20399;-59
2022/05/07 03:25:16;;;;;;;24.83;16.95;;;13.70;99.90;;;;;;5036374;28;20082;-60
2022/05/07 03:27:41;;;;;;;24.75;17.80;;;13.70;99.90;;;;;;5019129;28;20053;-58
2022/05/07 03:30:07;;;;;;;22.25;16.90;;;13.70;99.90;;;;;;5036039;28;20036;-59
2022/05/07 03:32:36;;;;;;;23.63;17.13;;;13.70;99.90;;;;;;5036533;28;20033;-59
2022/05/07 03:35:02;;;;;;;27.75;18.55;;;13.70;99.90;;;;;;5036326;28;20068;-58
2022/05/07 03:37:28;;;;;;;26.35;17.70;;;13.70;99.90;;;;;;5036236;28;20070;-56
2022/05/07 03:39:54;;;;;;;22.95;16.98;;;13.80;99.90;;;;;;5036157;28;20374;-59
2022/05/07 03:42:20;;;;;;;27.92;17.65;;;13.70;99.90;;;;;;5036080;28;20014;-58
2022/05/07 03:44:49;;;;;;;25.15;17.73;;;13.80;99.90;;;;;;5036066;28;20501;-58
2022/05/07 03:47:14;;;;;;;25.75;17.42;;;13.80;99.90;;;;;;5035599;28;20025;-59
2022/05/07 03:49:40;;;;;;;25.27;18.23;;;13.80;99.90;;;;;;5035702;28;20037;-58
2022/05/07 03:54:50;;;;;;;24.17;16.73;;;13.90;99.90;;;;;;5036214;28;20143;-59
2022/05/07 03:57:16;;;;;;;31.38;17.98;;;13.80;99.90;;;;;;5036168;28;20052;-56
2022/05/07 03:59:42;;;;;;;25.20;17.55;;;13.80;99.90;;;;;;5035238;28;20036;-59
2022/05/07 04:02:09;;;;;;;26.30;17.77;;;13.80;99.90;;;;;;5025679;28;20030;-59
2022/05/07 04:04:35;;;;;;;30.33;17.63;;;13.80;99.90;;;;;;4977664;28;20120;-57
2022/05/07 04:07:01;;;;;;;27.73;16.67;;;13.70;99.90;;;;;;4994810;28;20022;-58
2022/05/07 04:09:27;;;;;;;32.15;17.15;;;13.80;99.90;;;;;;4994934;28;20030;-59
2022/05/07 04:11:52;;;;;;;22.80;15.40;;;13.80;99.90;;;;;;4996452;28;20116;-59
2022/05/07 04:14:18;;;;;;;22.38;15.50;;;13.80;99.90;;;;;;4995896;28;20448;-58
2022/05/07 04:16:44;;;;;;;25.83;15.05;;;13.80;99.90;;;;;;4995178;28;20031;-57
2022/05/07 04:19:11;;;;;;;21.63;14.68;;;13.80;99.90;;;;;;4979194;28;20106;-58
2022/05/07 04:21:38;;;;;;;24.27;15.38;;;13.80;99.90;;;;;;4997542;28;20033;-59
2022/05/07 04:24:04;;;;;;;22.73;15.75;;;13.80;99.90;;;;;;4979827;28;20027;-59
2022/05/07 04:26:30;;;;;;;30.05;16.45;;;13.70;99.90;;;;;;4996653;28;20495;-58
2022/05/07 04:28:55;;;;;;;23.35;16.27;;;13.70;99.90;;;;;;4996546;28;20038;-58
2022/05/07 04:31:21;;;;;;;22.88;15.48;;;13.60;99.90;;;;;;4996410;28;20114;-58
2022/05/07 04:33:46;;;;;;;21.42;15.25;;;13.60;99.90;;;;;;4996258;28;20037;-58
2022/05/07 04:36:12;;;;;;;21.52;14.88;;;13.60;99.90;;;;;;4996143;28;20505;-59
2022/05/07 04:38:37;;;;;;;22.63;15.82;;;13.60;99.90;;;;;;4996061;28;20058;-59
2022/05/07 04:41:03;;;;;;;25.45;16.02;;;13.60;99.90;;;;;;4978245;28;20038;-57
2022/05/07 04:43:29;;;;;;;21.00;15.50;;;13.70;99.90;;;;;;4996404;28;20061;-59
2022/05/07 04:45:54;;;;;;;20.75;15.35;;;13.70;99.90;;;;;;4996143;28;20237;-59
2022/05/07 04:48:20;;;;;;;22.20;16.38;;;13.80;99.90;;;;;;4995519;28;20034;-60
2022/05/07 04:50:45;;;;;;;23.88;16.88;;;13.80;99.90;;;;;;4995589;28;20411;-58
2022/05/07 04:53:11;;;;;;;25.83;17.27;;;13.90;99.90;;;;;;4995626;28;20399;-59
2022/05/07 04:55:37;;;;;;;25.25;16.73;;;13.90;99.90;;;;;;4995578;28;20030;-59
2022/05/07 04:58:02;;;;;;;26.55;16.50;;;14.00;99.90;;;;;;4995917;28;20041;-59
2022/05/07 05:00:28;;;;;;;22.60;17.17;;;14.10;99.90;;;;;;4995686;28;20023;-59
2022/05/07 05:02:53;;;;;;;28.02;18.38;;;14.10;99.90;;;;;;4995315;28;20030;-58
2022/05/07 05:05:19;;;;;;;27.67;17.65;;;14.20;99.90;;;;;;4995639;28;20403;-59
2022/05/07 05:07:45;;;;;;;26.92;18.13;;;14.30;99.90;;;;;;4996216;28;20034;-59
2022/05/07 05:10:11;;;;;;;28.63;19.27;;;14.40;99.90;;;;;;4996106;28;20023;-59
2022/05/07 05:12:37;;;;;;;33.70;20.27;;;14.40;99.90;;;;;;4995922;28;20555;-59
2022/05/07 05:15:06;;;;;;;29.88;19.23;;;14.50;99.90;;;;;;4996671;28;20105;-59
2022/05/07 05:17:33;;;;;;;30.52;19.27;;;14.60;99.90;;;;;;4995774;28;20022;-58
2022/05/07 05:20:03;;;;;;;31.98;20.35;;;14.60;99.90;;;;;;4995545;28;20027;-58
2022/05/07 05:22:29;;;;;;;33.85;22.77;;;14.70;99.90;;;;;;4993872;28;20036;-58
2022/05/07 05:24:55;;;;;;;39.17;24.58;;;14.80;99.90;;;;;;4995894;28;20049;-59
2022/05/07 05:27:21;;;;;;;41.72;25.25;;;15.00;99.90;;;;;;4995336;28;20411;-58
2022/05/07 05:29:47;;;;;;;49.70;28.23;;;15.00;99.90;;;;;;4977900;28;20014;-59
2022/05/07 05:32:17;;;;;;;56.50;29.98;;;15.10;99.90;;;;;;4995999;28;20042;-59
2022/05/07 05:34:44;;;;;;;59.10;31.02;;;15.10;99.90;;;;;;4995236;28;20045;-59
2022/05/07 05:37:10;;;;;;;61.80;32.33;;;15.10;99.90;;;;;;4995087;28;20054;-59
2022/05/07 05:39:35;;;;;;;55.70;31.48;;;15.20;99.90;;;;;;4995192;28;20037;-59
2022/05/07 05:42:01;;;;;;;56.53;31.48;;;15.20;99.90;;;;;;4977798;28;20046;-59
2022/05/07 05:44:26;;;;;;;57.30;35.03;;;15.20;99.90;;;;;;4996049;28;20030;-60
2022/05/07 05:46:52;;;;;;;62.17;33.28;;;15.20;99.90;;;;;;4995093;28;20026;-59
2022/05/07 05:49:17;;;;;;;55.97;32.50;;;15.20;99.90;;;;;;4995227;28;20323;-59
2022/05/07 05:51:43;;;;;;;56.47;31.88;;;15.30;99.90;;;;;;4994548;28;20435;-58
2022/05/07 05:54:09;;;;;;;56.33;31.55;;;15.30;99.90;;;;;;4994329;28;20049;-59
2022/05/07 05:56:34;;;;;;;52.83;29.73;;;15.30;99.90;;;;;;4994743;28;20056;-58
2022/05/07 05:59:00;;;;;;;45.53;28.70;;;15.40;99.90;;;;;;4994195;28;20045;-60
2022/05/07 06:01:25;;;;;;;51.13;28.98;;;15.50;99.90;;;;;;4994417;28;20030;-59
2022/05/07 06:03:51;;;;;;;47.30;30.17;;;15.60;99.90;;;;;;4994151;28;20029;-59
2022/05/07 06:06:17;;;;;;;55.05;31.65;;;15.70;99.90;;;;;;4994582;28;20510;-58
2022/05/07 06:08:42;;;;;;;50.13;29.27;;;15.70;99.90;;;;;;4977303;28;20030;-59
2022/05/07 06:11:07;;;;;;;50.80;29.38;;;15.70;99.90;;;;;;4994743;28;20034;-59
2022/05/07 06:13:33;;;;;;;55.63;30.50;;;15.70;99.90;;;;;;4994687;28;20041;-59
2022/05/07 06:15:59;;;;;;;50.95;29.75;;;15.70;99.90;;;;;;4994527;28;20030;-59
2022/05/07 06:18:25;;;;;;;49.85;30.55;;;15.60;99.90;;;;;;4994877;28;20034;-58
2022/05/07 06:20:51;;;;;;;50.95;31.55;;;15.60;99.90;;;;;;4994078;28;20365;-60
2022/05/07 06:23:16;;;;;;;57.35;33.25;;;15.60;99.90;;;;;;4994468;28;20033;-58
2022/05/07 06:28:26;;;;;;;62.58;36.17;;;15.50;99.90;;;;;;4994242;28;20037;-60
2022/05/07 06:30:52;;;;;;;64.32;34.42;;;15.40;99.90;;;;;;4993817;28;20101;-60
2022/05/07 06:33:19;;;;;;;57.55;35.00;;;15.30;99.90;;;;;;4993728;28;20030;-60
2022/05/07 06:35:45;;;;;;;62.83;35.25;;;15.30;99.90;;;;;;4993860;28;20452;-59
2022/05/07 06:38:11;;;;;;;57.20;33.00;;;15.30;99.90;;;;;;4994324;28;20037;-59
2022/05/07 06:40:38;;;;;;;61.47;34.17;;;15.30;99.90;;;;;;4993874;28;20447;-59
2022/05/07 06:43:06;;;;;;;63.08;36.08;;;15.30;99.90;;;;;;4993661;28;20404;-59
2022/05/07 06:45:33;;;;;;;53.40;33.50;;;15.40;99.90;;;;;;4994114;28;20076;-60
2022/05/07 06:47:59;;;;;;;60.22;32.35;;;15.40;99.90;;;;;;4993612;28;20042;-59
2022/05/07 06:50:24;;;;;;;58.47;32.47;;;15.40;99.90;;;;;;4992544;28;20395;-58
2022/05/07 06:52:50;;;;;;;59.00;34.40;;;15.40;99.90;;;;;;4993974;28;20117;-59
2022/05/07 06:55:16;;;;;;;61.80;35.95;;;15.50;99.90;;;;;;4993962;28;20085;-59
2022/05/07 07:00:11;;;;;;;55.25;31.42;;;15.80;99.90;;;;;;5031281;28;20049;-61
2022/05/07 07:02:38;;;;;;;57.40;31.13;;;15.80;99.90;;;;;;5033066;28;20025;-59
2022/05/07 07:05:05;;;;;;;58.20;30.45;;;15.90;99.90;;;;;;5034836;28;20031;-60
2022/05/07 07:07:31;;;;;;;52.33;29.92;;;16.00;99.90;;;;;;5037079;28;20552;-60
2022/05/07 07:09:57;;;;;;;54.38;29.05;;;16.00;99.90;;;;;;5036503;28;20028;-59
2022/05/07 07:12:23;;;;;;;51.90;27.95;;;16.20;99.90;;;;;;5041823;23;20490;-70
2022/05/07 07:14:49;;;;;;;52.60;30.10;;;16.30;99.90;;;;;;5019073;28;20076;-70
2022/05/07 07:17:18;;;;;;;46.53;27.00;;;16.40;99.90;;;;;;5037034;28;20105;-70
2022/05/07 07:19:44;;;;;;;43.72;25.92;;;16.60;99.90;;;;;;5036629;28;20064;-70
2022/05/07 07:22:16;;;;;;;42.90;25.33;;;16.80;99.90;;;;;;5037050;28;20033;-70
2022/05/07 07:24:42;;;;;;;36.95;20.77;;;16.90;99.90;;;;;;5019878;28;20025;-69
2022/05/07 07:27:08;;;;;;;38.25;19.60;;;17.10;99.90;;;;;;5039164;28;20301;-70
2022/05/07 07:29:34;;;;;;;28.92;18.52;;;17.20;99.90;;;;;;5037329;28;20032;-70
2022/05/07 07:32:00;;;;;;;33.45;18.58;;;17.40;99.90;;;;;;5037090;28;20065;-69
2022/05/07 07:34:25;;;;;;;29.65;18.67;;;17.40;99.90;;;;;;5041143;28;20034;-70
2022/05/07 07:36:51;;;;;;;28.95;19.02;;;17.40;99.90;;;;;;5036520;28;20022;-69
2022/05/07 07:39:17;;;;;;;28.05;16.75;;;17.50;99.90;;;;;;5036360;28;20025;-70
2022/05/07 07:41:43;;;;;;;20.80;14.40;;;17.70;99.90;;;;;;5035898;28;20521;-69
2022/05/07 07:44:09;;;;;;;22.23;13.68;;;17.90;99.90;;;;;;5035872;28;20037;-69
2022/05/07 07:49:20;;;;;;;22.02;14.00;;;18.30;99.90;;;;;;5037167;28;20064;-71
2022/05/07 07:51:45;;;;;;;21.95;12.13;;;18.40;99.90;;;;;;5018832;28;20021;-70
2022/05/07 07:54:11;;;;;;;22.33;12.02;;;18.50;99.90;;;;;;5036059;28;20039;-69
2022/05/07 07:56:37;;;;;;;19.80;12.82;;;18.60;99.90;;;;;;5033914;28;20448;-68
2022/05/07 07:59:02;;;;;;;22.33;12.80;;;18.70;99.90;;;;;;5035591;28;20021;-68
2022/05/07 08:01:28;;;;;;;22.75;13.23;;;18.80;99.90;;;;;;5035373;28;20037;-68
2022/05/07 08:03:53;;;;;;;18.98;11.82;;;19.00;99.90;;;;;;5035706;28;20112;-69
2022/05/07 08:06:19;;;;;;;18.85;10.50;;;19.20;99.90;;;;;;5039283;28;20036;-69
2022/05/07 08:11:41;;;;;;;15.30;8.90;;;19.20;99.90;;;;;;5043808;28;20048;-68
2022/05/07 08:14:08;;;;;;;14.02;6.70;;;19.10;99.90;;;;;;5035952;28;20120;-68
2022/05/07 08:16:34;;;;;;;11.25;6.10;;;19.00;99.90;;;;;;5034687;28;20035;-68
2022/05/07 08:18:59;;;;;;;8.88;5.78;;;19.00;99.90;;;;;;5035663;28;20331;-69
2022/05/07 08:21:25;;;;;;;9.48;5.53;;;19.00;99.90;;;;;;5035331;28;20026;-69
2022/05/07 08:23:51;;;;;;;8.68;5.03;;;18.90;99.90;;;;;;5017320;28;20033;-69
2022/05/07 08:26:17;;;;;;;9.90;5.57;;;18.90;99.90;;;;;;5028142;28;20025;-68
2022/05/07 08:28:43;;;;;;;7.63;5.10;;;19.00;99.90;;;;;;5006527;28;20053;-69
2022/05/07 08:31:10;;;;;;;13.35;5.30;;;19.00;99.90;;;;;;5015671;28;20442;-69
2022/05/07 08:33:37;;;;;;;10.10;6.60;;;18.90;99.90;;;;;;4997671;28;20026;-69
2022/05/07 08:36:03;;;;;;;11.32;6.40;;;19.00;99.90;;;;;;5015373;28;20014;-69
2022/05/07 08:38:29;;;;;;;8.55;5.97;;;19.00;99.90;;;;;;5015441;28;20026;-69
2022/05/07 08:40:55;;;;;;;11.27;6.03;;;19.10;99.90;;;;;;5019358;28;20419;-69
2022/05/07 08:43:21;;;;;;;9.85;5.05;;;19.10;99.90;;;;;;5034517;28;20493;-69
2022/05/07 08:45:47;;;;;;;7.68;3.35;;;19.00;99.90;;;;;;5015859;28;20029;-69
2022/05/07 08:48:12;;;;;;;5.82;3.58;;;18.90;99.90;;;;;;5040040;28;20037;-69
2022/05/07 08:50:39;;;;;;;8.50;4.47;;;18.80;99.90;;;;;;5033221;28;20037;-69
2022/05/07 08:53:05;;;;;;;5.97;3.97;;;18.80;99.90;;;;;;5026968;28;20034;-69
2022/05/07 08:55:31;;;;;;;9.30;3.80;;;18.90;99.90;;;;;;5016079;28;20045;-69
2022/05/07 08:57:57;;;;;;;7.70;3.83;;;19.00;99.90;;;;;;5014873;28;20033;-69
2022/05/07 09:00:26;;;;;;;6.75;4.68;;;19.30;99.90;;;;;;5014525;28;20032;-69
2022/05/07 09:03:02;;;;;;;9.93;5.57;;;19.50;99.90;;;;;;5014281;28;20034;-70
2022/05/07 09:05:34;;;;;;;8.25;6.18;;;19.70;99.90;;;;;;4996750;28;20030;-70
2022/05/07 09:08:00;;;;;;;13.07;6.30;;;19.90;99.90;;;;;;5014719;28;20034;-70
2022/05/07 09:10:31;;;;;;;8.75;5.30;;;20.10;99.90;;;;;;5019548;28;20025;-69
2022/05/07 09:13:15;;;;;;;11.38;5.57;;;20.30;99.90;;;;;;5034980;28;20028;-69
2022/05/07 09:15:53;;;;;;;12.05;5.40;;;20.20;99.90;;;;;;5031881;28;20439;-70
2022/05/07 09:18:20;;;;;;;11.95;6.53;;;20.30;99.90;;;;;;5033352;28;20052;-70
2022/05/07 09:24:00;;;;;;;12.77;9.65;;;20.30;99.90;;;;;;5034672;28;20109;-70
2022/05/07 09:26:33;;;;;;;14.75;10.43;;;20.20;99.90;;;;;;5033974;28;20486;-71
2022/05/07 09:29:03;;;;;;;21.05;10.20;;;20.10;99.90;;;;;;5034938;28;20034;-70
2022/05/07 09:31:30;;;;;;;20.98;10.30;;;20.10;99.90;;;;;;5040175;28;20030;-70
2022/05/07 09:35:47;;;;;;;15.35;9.68;;;20.10;99.90;;;;;;5022937;28;20032;-70
2022/05/07 09:36:45;;;;;;;18.67;10.30;;;20.20;99.90;;;;;;5036007;28;20055;-70
2022/05/07 09:39:13;;;;;;;17.67;10.05;;;20.20;99.90;;;;;;5033722;28;20478;-70
2022/05/07 09:41:39;;;;;;;15.32;10.20;;;20.30;99.90;;;;;;5033803;28;20029;-70
2022/05/07 09:44:04;;;;;;;14.20;9.23;;;20.30;99.90;;;;;;5015910;28;20025;-70
2022/05/07 09:46:32;;;;;;;14.75;7.80;;;20.30;99.90;;;;;;5033614;28;20037;-70
2022/05/07 09:49:00;;;;;;;14.65;8.95;;;20.40;99.90;;;;;;5033578;28;20463;-70
2022/05/07 09:51:27;;;;;;;14.95;7.88;;;20.30;99.90;;;;;;5033539;28;20044;-70
2022/05/07 09:59:21;;;;;;;14.55;7.05;;;20.10;99.90;;;;;;5033583;28;20096;-70
2022/05/07 10:02:11;;;;;;;10.00;6.22;;;20.00;99.90;;;;;;5033176;28;20029;-70
2022/05/07 10:04:45;;;;;;;14.77;6.38;;;20.00;99.90;;;;;;5033902;28;20044;-70
2022/05/07 10:07:29;;;;;;;10.13;5.93;;;20.00;99.90;;;;;;5015553;28;20328;-71
2022/05/07 10:10:09;;;;;;;12.48;6.68;;;20.10;99.90;;;;;;5033467;28;20026;-69
2022/05/07 10:12:35;;;;;;;9.55;7.05;;;20.20;99.90;;;;;;5032882;28;20080;-70
2022/05/07 10:15:09;;;;;;;13.20;6.75;;;20.20;99.90;;;;;;5023101;28;20036;-70
2022/05/07 10:17:35;;;;;;;12.13;6.35;;;20.40;99.90;;;;;;5035225;28;20021;-70
2022/05/07 10:20:06;;;;;;;7.35;5.97;;;20.40;99.90;;;;;;5032784;28;20075;-70
2022/05/07 10:22:32;;;;;;;;;;;20.30;99.90;;;;;;5033664;28;20138;-70
2022/05/07 10:25:16;;;;;;;10.95;6.38;;;20.30;99.90;;;;;;5034234;28;19917;-71
2022/05/07 10:27:43;;;;;;;14.50;6.95;;;20.30;99.90;;;;;;5029781;28;20033;-71
2022/05/07 10:30:16;;;;;;;14.88;6.40;;;20.30;99.90;;;;;;5010989;28;20029;-71
2022/05/07 10:33:02;;;;;;;10.18;6.13;;;20.30;99.90;;;;;;5030039;28;20395;-71
2022/05/07 10:35:49;;;;;;;10.77;5.90;;;20.30;99.90;;;;;;5032093;28;20037;-71
2022/05/07 10:38:24;;;;;;;12.68;6.40;;;20.20;99.90;;;;;;5033080;28;20022;-71
2022/05/07 10:41:01;;;;;;;12.43;6.75;;;20.10;99.90;;;;;;5017560;28;20390;-70
2022/05/07 10:43:39;;;;;;;13.23;6.38;;;20.20;99.90;;;;;;5036862;28;20128;-70
2022/05/07 10:46:12;;;;;;;11.30;6.70;;;20.20;99.90;;;;;;5036706;28;20022;-71
2022/05/07 10:49:01;;;;;;;15.85;6.70;;;20.30;99.90;;;;;;5019468;28;20029;-70
2022/05/07 10:51:27;;;;;;;9.82;6.57;;;20.40;99.90;;;;;;5035550;28;20034;-70
2022/05/07 10:53:56;;;;;;;11.25;7.43;;;20.40;99.90;;;;;;5028055;28;20030;-70
2022/05/07 10:56:23;;;;;;;13.57;7.65;;;20.50;99.90;;;;;;5021050;28;20026;-70
2022/05/07 10:58:50;;;;;;;13.15;7.28;;;20.50;99.90;;;;;;5032761;28;20017;-70
2022/05/07 11:01:18;;;;;;;11.70;6.25;;;20.40;99.90;;;;;;5036413;28;20470;-70
2022/05/07 11:03:44;;;;;;;10.30;6.38;;;20.40;99.90;;;;;;5030713;28;20025;-70
2022/05/07 11:06:10;;;;;;;11.35;7.57;;;20.40;99.90;;;;;;5021977;28;20026;-69
2022/05/07 11:08:55;;;;;;;12.63;6.90;;;20.30;99.90;;;;;;5021583;28;20142;-70
2022/05/07 11:11:23;;;;;;;13.95;6.97;;;20.30;99.90;;;;;;5016752;28;20137;-70
2022/05/07 11:13:53;;;;;;;15.65;6.75;;;20.30;99.90;;;;;;5029422;28;20024;-70
2022/05/07 11:16:20;;;;;;;11.27;7.20;;;20.40;99.90;;;;;;5030051;28;20045;-70
2022/05/07 11:18:51;;;;;;;13.30;6.78;;;20.50;99.90;;;;;;5025793;28;20049;-71
2022/05/07 11:21:24;;;;;;;8.45;6.35;;;20.60;99.90;;;;;;5028053;28;20026;-71
2022/05/07 11:23:53;;;;;;;8.18;6.13;;;20.70;99.90;;;;;;5007978;28;20026;-71
2022/05/07 11:26:20;;;;;;;10.15;6.80;;;20.90;99.90;;;;;;5007788;28;20021;-71
2022/05/07 11:28:46;;;;;;;8.82;6.13;;;20.90;99.90;;;;;;5006730;28;20022;-71
2022/05/07 11:31:24;;;;;;;11.32;8.13;;;20.80;99.90;;;;;;5025295;28;20025;-71
2022/05/07 11:34:00;;;;;;;14.32;9.25;;;20.70;99.90;;;;;;5024596;28;20022;-71
2022/05/07 11:36:26;;;;;;;12.27;8.32;;;20.60;99.90;;;;;;5007800;28;20386;-71
2022/05/07 11:39:00;;;;;;;12.10;7.38;;;20.50;99.90;;;;;;5008053;28;20026;-71
2022/05/07 11:41:25;;;;;;;14.77;7.95;;;20.40;99.90;;;;;;5024097;28;20376;-71
2022/05/07 11:46:50;;;;;;;14.40;8.40;;;20.40;99.90;;;;;;5029547;28;20029;-71
2022/05/07 11:49:30;;;;;;;12.87;8.53;;;20.40;99.90;;;;;;5030619;28;20053;-71
2022/05/07 11:52:12;;;;;;;13.48;8.73;;;20.40;99.90;;;;;;5027263;28;20032;-71
2022/05/07 11:54:51;;;;;;;12.20;7.88;;;20.50;99.90;;;;;;5025152;28;20080;-71
2022/05/07 11:57:31;;;;;;;17.38;10.27;;;20.60;99.90;;;;;;5007612;28;20018;-71
2022/05/07 11:59:57;;;;;;;14.35;8.55;;;20.70;99.90;;;;;;5026375;28;20100;-70
2022/05/07 12:02:22;;;;;;;13.13;8.50;;;20.80;99.90;;;;;;5025725;28;20042;-73
2022/05/07 12:04:58;;;;;;;12.35;7.40;;;20.90;99.90;;;;;;5024799;28;20053;-71
2022/05/07 12:07:23;;;;;;;12.18;8.80;;;21.00;99.90;;;;;;5025063;28;20463;-71
2022/05/07 12:09:49;;;;;;;13.65;9.27;;;21.10;99.90;;;;;;5006772;28;20072;-71
2022/05/07 12:12:14;;;;;;;17.73;10.45;;;21.00;99.90;;;;;;5023562;28;20022;-71
2022/05/07 12:14:40;;;;;;;14.57;9.40;;;20.90;99.90;;;;;;5026447;28;20057;-71
2022/05/07 12:19:50;;;;;;;14.05;9.35;;;20.60;99.90;;;;;;5026707;28;20076;-71
2022/05/07 12:30:48;;;;;;;16.88;9.68;;;20.30;99.90;;;;;;4951224;29;20705;-70
2022/05/07 12:33:13;;;;;;;14.20;10.60;;;20.20;99.90;;;;;;4950711;29;20031;-70
2022/05/07 12:35:39;;;;;;;16.42;10.93;;;20.10;99.90;;;;;;4984851;28;20960;-71
2022/05/07 12:38:05;;;;;;;14.10;9.30;;;20.10;99.90;;;;;;5007281;28;20029;-71
2022/05/07 12:40:31;;;;;;;18.67;10.13;;;20.10;99.90;;;;;;5025446;28;20025;-71
2022/05/07 12:42:58;;;;;;;14.55;9.38;;;20.20;99.90;;;;;;5023346;28;20026;-71
2022/05/07 12:45:24;;;;;;;17.42;10.02;;;20.20;99.90;;;;;;5023628;28;20021;-70
2022/05/07 12:47:50;;;;;;;15.50;9.35;;;20.20;99.90;;;;;;5023731;28;20474;-71
2022/05/07 12:50:16;;;;;;;18.05;10.68;;;20.30;99.90;;;;;;5024218;28;20032;-71
2022/05/07 12:52:41;;;;;;;14.05;9.23;;;20.40;99.90;;;;;;5026937;28;20049;-71
2022/05/07 12:55:07;;;;;;;17.85;9.75;;;20.50;99.90;;;;;;5028074;28;20612;-69
2022/05/07 12:57:33;;;;;;;14.85;8.93;;;20.70;99.90;;;;;;5007231;28;20112;-69
2022/05/07 12:59:58;;;;;;;21.33;10.77;;;20.80;99.90;;;;;;5026378;28;20028;-69
2022/05/07 13:02:24;;;;;;;16.63;9.23;;;20.90;99.90;;;;;;5024874;28;20092;-70
2022/05/07 13:04:50;;;;;;;20.83;11.60;;;20.80;99.90;;;;;;5023227;28;20076;-69
2022/05/07 13:07:15;;;;;;;17.83;11.00;;;20.90;99.90;;;;;;5008400;28;20025;-69
2022/05/07 13:09:41;;;;;;;15.43;9.02;;;20.80;99.90;;;;;;5013630;28;20033;-70
2022/05/07 13:12:07;;;;;;;14.25;9.50;;;20.80;99.90;;;;;;5045748;22;20455;-73
2022/05/07 13:14:35;;;;;;;14.48;9.65;;;20.80;99.90;;;;;;5041864;28;20081;-73
2022/05/07 13:17:01;;;;;;;17.50;9.77;;;20.70;99.90;;;;;;5029999;28;20422;-74
2022/05/07 13:19:27;;;;;;;16.73;9.55;;;20.50;99.90;;;;;;5033628;28;20022;-74